Time;durP1;ratioP1;P1;durP2;ratioP2;P2;SDS_P1;SDS_P2;PMS_P1;PMS_P2;Temp;Humidity;BMP_temperature;BMP_pressure;BME280_temperature;BME280_humidity;BME280_pressure;Samples;Min_cycle;Max_cycle;Signal;HPM_P1;HPM_P2
2023/11/04 00:02:11;;;;;;;5.45;0.98;;;7.70;99.90;;;;;;5013871;28;20140;-80
2023/11/04 00:04:36;;;;;;;3.92;0.93;;;7.70;99.90;;;;;;4968283;28;20026;-79
2023/11/04 00:07:02;;;;;;;3.78;0.85;;;7.70;99.90;;;;;;4966654;28;20105;-80
2023/11/04 00:09:27;;;;;;;4.07;1.35;;;7.60;99.90;;;;;;4983694;28;20042;-80
2023/11/04 00:11:54;;;;;;;2.63;0.77;;;7.50;99.90;;;;;;5013660;28;20514;-79
2023/11/04 00:14:20;;;;;;;6.53;0.90;;;7.50;99.90;;;;;;4986225;28;20034;-79
2023/11/04 00:16:46;;;;;;;1.58;0.60;;;7.60;99.90;;;;;;4980200;28;20070;-79
2023/11/04 00:19:11;;;;;;;1.60;0.90;;;7.60;99.90;;;;;;5013283;28;20065;-80
2023/11/04 00:21:41;;;;;;;2.92;0.73;;;7.60;99.90;;;;;;4985290;28;20036;-79
2023/11/04 00:24:08;;;;;;;3.80;0.70;;;7.50;99.90;;;;;;5011078;28;20061;-79
2023/11/04 00:26:34;;;;;;;2.60;0.90;;;7.50;99.90;;;;;;4986070;28;20105;-80
2023/11/04 00:29:00;;;;;;;1.85;1.02;;;7.40;99.90;;;;;;4969282;28;20089;-80
2023/11/04 00:31:27;;;;;;;1.70;0.60;;;7.40;99.90;;;;;;4985027;28;20042;-80
2023/11/04 00:33:53;;;;;;;2.17;0.88;;;7.50;99.90;;;;;;4999726;28;20030;-79
2023/11/04 00:36:18;;;;;;;3.17;0.80;;;7.40;99.90;;;;;;4997511;28;20176;-79
2023/11/04 00:38:44;;;;;;;2.05;0.70;;;7.40;99.90;;;;;;5015200;28;20026;-79
2023/11/04 00:41:10;;;;;;;3.80;0.65;;;7.50;99.90;;;;;;4997343;28;20026;-80
2023/11/04 00:43:36;;;;;;;2.05;0.65;;;7.60;99.90;;;;;;4985067;28;20475;-79
2023/11/04 00:46:02;;;;;;;1.65;0.40;;;7.60;99.90;;;;;;4983958;28;20057;-80
2023/11/04 00:48:28;;;;;;;6.78;0.75;;;7.60;99.90;;;;;;4983757;28;20030;-79
2023/11/04 00:50:53;;;;;;;3.00;0.70;;;7.60;99.90;;;;;;4984950;28;20045;-79
2023/11/04 00:53:19;;;;;;;3.40;0.80;;;7.70;99.90;;;;;;4981707;28;20047;-79
2023/11/04 00:55:45;;;;;;;2.85;0.68;;;7.70;99.90;;;;;;4996921;28;20036;-79
2023/11/04 00:58:10;;;;;;;1.10;0.70;;;7.70;99.90;;;;;;5013628;28;20482;-79
2023/11/04 01:00:39;;;;;;;2.08;0.68;;;7.70;99.90;;;;;;4967699;28;20036;-79
2023/11/04 01:03:05;;;;;;;2.40;0.82;;;7.80;99.90;;;;;;4983563;28;20143;-79
2023/11/04 01:05:30;;;;;;;2.05;0.50;;;7.80;99.90;;;;;;4983680;28;20046;-80
2023/11/04 01:07:56;;;;;;;3.60;0.73;;;7.80;99.90;;;;;;5012534;28;21367;-79
2023/11/04 01:10:21;;;;;;;1.20;0.60;;;7.80;99.90;;;;;;4984191;28;20383;-79
2023/11/04 01:12:47;;;;;;;0.73;0.40;;;7.80;99.90;;;;;;4999541;28;20030;-79
2023/11/04 01:15:12;;;;;;;1.17;0.40;;;7.80;99.90;;;;;;5014110;28;20038;-79
2023/11/04 01:17:38;;;;;;;1.38;0.50;;;7.80;99.90;;;;;;4967562;28;20483;-79
2023/11/04 01:20:05;;;;;;;3.95;0.50;;;7.90;99.90;;;;;;4983314;28;20045;-80
2023/11/04 01:22:31;;;;;;;1.60;0.52;;;7.90;99.90;;;;;;4996533;28;20117;-80
2023/11/04 01:24:56;;;;;;;0.82;0.50;;;7.80;99.90;;;;;;4982133;28;20105;-79
2023/11/04 01:27:22;;;;;;;1.30;0.70;;;7.90;99.90;;;;;;4995327;28;20049;-79
2023/11/04 01:29:49;;;;;;;1.92;0.63;;;7.90;99.90;;;;;;5011998;28;21009;-78
2023/11/04 01:32:15;;;;;;;1.35;0.50;;;8.00;99.90;;;;;;5010935;28;20038;-79
2023/11/04 01:34:41;;;;;;;0.50;0.30;;;8.00;99.90;;;;;;4983105;28;20401;-79
2023/11/04 01:37:06;;;;;;;0.65;0.17;;;8.00;99.90;;;;;;4965696;28;20541;-80
2023/11/04 01:39:33;;;;;;;1.17;0.30;;;8.00;99.90;;;;;;5013061;28;20044;-79
2023/11/04 01:42:04;;;;;;;0.30;0.22;;;8.10;99.90;;;;;;5012342;28;20053;-79
2023/11/04 01:44:30;;;;;;;0.45;0.20;;;8.10;99.90;;;;;;4982982;28;20053;-79
2023/11/04 01:46:55;;;;;;;2.03;0.40;;;8.10;99.90;;;;;;4966609;28;20034;-79
2023/11/04 01:49:21;;;;;;;0.10;0.10;;;8.10;99.90;;;;;;5000720;28;20062;-80
2023/11/04 01:51:47;;;;;;;0.80;0.10;;;8.10;99.90;;;;;;4996332;28;20116;-79
2023/11/04 01:54:12;;;;;;;0.55;0.30;;;8.10;99.90;;;;;;4995585;28;20037;-79
2023/11/04 01:56:39;;;;;;;0.10;0.10;;;8.20;99.90;;;;;;4981303;28;20039;-80
2023/11/04 01:59:04;;;;;;;0.90;0.30;;;8.20;99.90;;;;;;4994267;28;20582;-79
2023/11/04 02:01:30;;;;;;;0.32;0.20;;;8.20;99.90;;;;;;4993051;28;20128;-80
2023/11/04 02:03:56;;;;;;;0.28;0.28;;;8.20;99.90;;;;;;4978174;28;20549;-80
2023/11/04 02:06:21;;;;;;;0.30;0.20;;;8.20;99.90;;;;;;4998226;28;20035;-79
2023/11/04 02:08:47;;;;;;;0.90;0.00;;;8.30;99.90;;;;;;4983392;28;20041;-79
2023/11/04 02:11:13;;;;;;;0.40;0.20;;;8.30;99.90;;;;;;4966222;28;20038;-80
2023/11/04 02:13:38;;;;;;;0.30;0.25;;;8.30;99.90;;;;;;5011171;28;20039;-78
2023/11/04 02:16:05;;;;;;;0.10;0.10;;;8.30;99.90;;;;;;4981904;28;20121;-79
2023/11/04 02:18:31;;;;;;;0.50;0.30;;;8.40;99.90;;;;;;4983661;28;20573;-79
2023/11/04 02:21:00;;;;;;;1.90;0.22;;;8.40;99.90;;;;;;4983032;28;20042;-79
2023/11/04 02:23:26;;;;;;;1.15;0.20;;;8.40;99.90;;;;;;4982184;28;20034;-80
2023/11/04 02:25:53;;;;;;;0.10;0.10;;;8.40;99.90;;;;;;4993340;28;20034;-79
2023/11/04 02:28:20;;;;;;;0.50;0.15;;;8.40;99.90;;;;;;4993452;28;20050;-79
2023/11/04 02:30:45;;;;;;;0.90;0.30;;;8.30;99.90;;;;;;4998090;28;20050;-79
2023/11/04 02:33:11;;;;;;;1.83;0.30;;;8.30;99.90;;;;;;4994711;28;20090;-79
2023/11/04 02:35:36;;;;;;;0.80;0.20;;;8.30;99.90;;;;;;4983688;28;20328;-79
2023/11/04 02:38:02;;;;;;;0.28;0.17;;;8.30;99.90;;;;;;5012622;28;20032;-79
2023/11/04 02:40:28;;;;;;;0.55;0.35;;;8.40;99.90;;;;;;4982434;28;20036;-80
2023/11/04 02:42:53;;;;;;;0.20;0.13;;;8.40;99.90;;;;;;4992994;28;20419;-80
2023/11/04 02:45:19;;;;;;;0.47;0.20;;;8.40;99.90;;;;;;4982549;28;20062;-79
2023/11/04 02:47:44;;;;;;;0.30;0.20;;;8.40;99.90;;;;;;4995923;28;20917;-79
2023/11/04 02:50:13;;;;;;;0.00;0.00;;;8.40;99.90;;;;;;4999552;28;20041;-80
2023/11/04 02:52:41;;;;;;;0.17;0.10;;;8.40;99.90;;;;;;5011171;28;20502;-80
2023/11/04 02:55:07;;;;;;;0.50;0.30;;;8.40;99.90;;;;;;4981091;28;20364;-79
2023/11/04 02:57:33;;;;;;;1.30;0.20;;;8.40;99.90;;;;;;4965934;28;20033;-79
2023/11/04 02:59:59;;;;;;;0.90;0.20;;;8.40;99.90;;;;;;4981824;28;20105;-79
2023/11/04 03:02:24;;;;;;;1.48;0.20;;;8.40;99.90;;;;;;4998588;28;20478;-79
2023/11/04 03:04:50;;;;;;;0.10;0.10;;;8.40;99.90;;;;;;5012303;28;20149;-78
2023/11/04 03:07:15;;;;;;;0.10;0.10;;;8.40;99.90;;;;;;4982880;28;20101;-79
2023/11/04 03:09:41;;;;;;;2.00;0.20;;;8.40;99.90;;;;;;5012747;28;20046;-79
2023/11/04 03:12:06;;;;;;;1.10;0.35;;;8.50;99.90;;;;;;4977690;28;20058;-80
2023/11/04 03:14:32;;;;;;;1.60;0.20;;;8.50;99.90;;;;;;4982719;28;20561;-79
2023/11/04 03:16:58;;;;;;;1.92;0.20;;;8.50;99.90;;;;;;4997825;28;20037;-80
2023/11/04 03:19:24;;;;;;;0.10;0.10;;;8.60;99.90;;;;;;4970327;28;20145;-79
2023/11/04 03:21:50;;;;;;;0.47;0.22;;;8.60;99.90;;;;;;4985625;28;20054;-78
2023/11/04 03:24:16;;;;;;;2.65;0.30;;;8.60;99.90;;;;;;5013494;28;20030;-80
2023/11/04 03:26:42;;;;;;;2.33;0.40;;;8.60;99.90;;;;;;4996165;28;20041;-80
2023/11/04 03:29:07;;;;;;;0.63;0.30;;;8.60;99.90;;;;;;4983562;28;20030;-79
2023/11/04 03:31:34;;;;;;;0.68;0.28;;;8.60;99.90;;;;;;4984219;28;20022;-80
2023/11/04 03:33:59;;;;;;;0.63;0.30;;;8.70;99.90;;;;;;4986328;28;20030;-81
2023/11/04 03:36:25;;;;;;;0.95;0.30;;;8.70;99.90;;;;;;4986782;28;20034;-79
2023/11/04 03:38:51;;;;;;;0.30;0.30;;;8.60;99.90;;;;;;4968755;28;20030;-79
2023/11/04 03:41:17;;;;;;;1.45;0.20;;;8.60;99.90;;;;;;4993582;28;20095;-79
2023/11/04 03:43:42;;;;;;;1.13;0.30;;;8.60;99.90;;;;;;5000118;28;20035;-79
2023/11/04 03:46:08;;;;;;;0.85;0.30;;;8.60;99.90;;;;;;4969024;28;20506;-80
2023/11/04 03:48:34;;;;;;;0.43;0.30;;;8.60;99.90;;;;;;4998116;28;20031;-80
2023/11/04 03:50:59;;;;;;;0.30;0.20;;;8.60;99.90;;;;;;5014992;28;20064;-79
2023/11/04 03:53:25;;;;;;;0.47;0.30;;;8.60;99.90;;;;;;4985257;28;20089;-80
2023/11/04 03:55:50;;;;;;;0.60;0.38;;;8.60;99.90;;;;;;4983501;28;20038;-80
2023/11/04 03:58:16;;;;;;;2.17;0.30;;;8.70;99.90;;;;;;5016719;28;20293;-79
2023/11/04 04:00:42;;;;;;;0.20;0.10;;;8.70;99.90;;;;;;4984443;28;20089;-79
2023/11/04 04:03:07;;;;;;;0.28;0.20;;;8.70;99.90;;;;;;4967660;28;20448;-79
2023/11/04 04:05:33;;;;;;;0.20;0.20;;;8.70;99.90;;;;;;4985227;28;20065;-79
2023/11/04 04:07:58;;;;;;;1.63;0.30;;;8.70;99.90;;;;;;4984924;28;20073;-80
2023/11/04 04:10:25;;;;;;;0.73;0.40;;;8.70;99.90;;;;;;4985333;28;20065;-80
2023/11/04 04:12:51;;;;;;;0.88;0.30;;;8.80;99.90;;;;;;5013153;28;20046;-79
2023/11/04 04:15:17;;;;;;;1.33;0.30;;;8.80;99.90;;;;;;4998878;28;20042;-78
2023/11/04 04:17:43;;;;;;;0.43;0.20;;;8.80;99.90;;;;;;4993150;28;20088;-79
2023/11/04 04:20:11;;;;;;;1.63;0.47;;;8.70;99.90;;;;;;5005250;28;20035;-79
2023/11/04 04:22:38;;;;;;;1.25;0.40;;;8.80;99.90;;;;;;4985089;28;20034;-79
2023/11/04 04:25:04;;;;;;;0.30;0.28;;;8.80;99.90;;;;;;4967001;28;20643;-79
2023/11/04 04:27:30;;;;;;;1.38;0.30;;;8.80;99.90;;;;;;4983918;28;20038;-79
2023/11/04 04:29:55;;;;;;;0.47;0.30;;;8.80;99.90;;;;;;4969116;28;20058;-80
2023/11/04 04:32:21;;;;;;;1.08;0.30;;;8.80;99.90;;;;;;4999165;28;20038;-81
2023/11/04 04:34:47;;;;;;;3.20;0.20;;;8.90;99.90;;;;;;5012264;28;20049;-80
2023/11/04 04:37:13;;;;;;;0.25;0.20;;;8.90;99.90;;;;;;5001149;28;20200;-80
2023/11/04 04:39:39;;;;;;;1.42;0.60;;;8.90;99.90;;;;;;4983660;28;20034;-80
2023/11/04 04:42:05;;;;;;;0.68;0.38;;;8.80;99.90;;;;;;5004634;28;20030;-78
2023/11/04 04:44:31;;;;;;;0.30;0.30;;;8.90;99.90;;;;;;4984041;28;20029;-79
2023/11/04 04:46:57;;;;;;;0.77;0.40;;;8.90;99.90;;;;;;4984917;28;20462;-79
2023/11/04 04:49:23;;;;;;;0.95;0.35;;;8.90;99.90;;;;;;4997527;28;20034;-80
2023/11/04 04:51:48;;;;;;;1.02;0.20;;;9.00;99.90;;;;;;4999164;28;20043;-80
2023/11/04 04:54:14;;;;;;;0.85;0.40;;;8.90;99.90;;;;;;4980882;28;20026;-80
2023/11/04 04:56:40;;;;;;;0.80;0.40;;;8.90;99.90;;;;;;4984486;28;20032;-80
2023/11/04 04:59:05;;;;;;;0.98;0.30;;;8.90;99.90;;;;;;4983893;28;20035;-80
2023/11/04 05:01:31;;;;;;;0.70;0.38;;;8.80;99.90;;;;;;4983862;28;20033;-79
2023/11/04 05:03:56;;;;;;;1.05;0.50;;;8.80;99.90;;;;;;4981566;28;20056;-79
2023/11/04 05:06:22;;;;;;;1.15;0.52;;;8.90;99.90;;;;;;4995597;28;20418;-80
2023/11/04 05:08:47;;;;;;;2.42;0.65;;;8.80;99.90;;;;;;5016010;28;20568;-80
2023/11/04 05:11:13;;;;;;;1.23;0.60;;;8.80;99.90;;;;;;4997296;28;20332;-79
2023/11/04 05:13:39;;;;;;;0.90;0.40;;;8.80;99.90;;;;;;4995853;28;20085;-79
2023/11/04 05:16:05;;;;;;;1.55;0.50;;;8.90;99.90;;;;;;4983224;28;20049;-79
2023/11/04 05:18:30;;;;;;;2.65;0.30;;;8.90;99.90;;;;;;5012282;28;20038;-80
2023/11/04 05:20:56;;;;;;;0.30;0.30;;;8.90;99.90;;;;;;4999031;28;20084;-79
2023/11/04 05:23:22;;;;;;;3.00;0.30;;;8.90;99.90;;;;;;4993250;28;20041;-80
2023/11/04 05:25:48;;;;;;;1.00;0.32;;;8.90;99.90;;;;;;5014831;28;20185;-79
2023/11/04 05:28:14;;;;;;;2.30;0.40;;;8.90;99.90;;;;;;4996013;28;20031;-79
2023/11/04 05:30:40;;;;;;;0.65;0.35;;;8.90;99.90;;;;;;4983325;28;20447;-79
2023/11/04 05:33:05;;;;;;;1.05;0.50;;;8.90;99.90;;;;;;4982212;28;20439;-80
2023/11/04 05:35:31;;;;;;;1.60;0.50;;;8.90;99.90;;;;;;4990529;28;20114;-80
2023/11/04 05:37:57;;;;;;;1.08;0.55;;;9.00;99.90;;;;;;5007946;28;20045;-80
2023/11/04 05:40:22;;;;;;;0.95;0.40;;;9.00;99.90;;;;;;4982664;28;20034;-79
2023/11/04 05:42:48;;;;;;;0.98;0.40;;;8.90;99.90;;;;;;4998899;28;20070;-79
2023/11/04 05:45:14;;;;;;;1.50;0.50;;;9.00;99.90;;;;;;4999782;28;20034;-78
2023/11/04 05:47:44;;;;;;;0.22;0.20;;;9.00;99.90;;;;;;4984064;28;20479;-79
2023/11/04 05:50:10;;;;;;;2.25;0.30;;;9.00;99.90;;;;;;4968156;28;20081;-79
2023/11/04 05:52:35;;;;;;;0.35;0.20;;;9.00;99.90;;;;;;4982092;28;20047;-79
2023/11/04 05:55:01;;;;;;;1.23;0.52;;;9.00;99.90;;;;;;4981149;28;20058;-79
2023/11/04 05:57:26;;;;;;;1.13;0.52;;;9.00;99.90;;;;;;4999693;28;20031;-80
2023/11/04 05:59:52;;;;;;;1.35;0.40;;;9.00;99.90;;;;;;5016001;28;20030;-80
2023/11/04 06:02:17;;;;;;;0.60;0.38;;;9.00;99.90;;;;;;4984772;28;20042;-79
2023/11/04 06:04:43;;;;;;;0.30;0.30;;;9.00;99.90;;;;;;4967453;28;20050;-79
2023/11/04 06:07:08;;;;;;;1.52;0.50;;;9.00;99.90;;;;;;4967226;28;20058;-79
2023/11/04 06:09:34;;;;;;;0.50;0.40;;;9.00;99.90;;;;;;4998353;28;20061;-80
2023/11/04 06:12:00;;;;;;;0.20;0.20;;;9.00;99.90;;;;;;5000794;28;20030;-79
2023/11/04 06:14:26;;;;;;;0.43;0.38;;;9.00;99.90;;;;;;4982856;28;20041;-80
2023/11/04 06:16:52;;;;;;;0.90;0.35;;;9.00;99.90;;;;;;4993882;28;20039;-79
2023/11/04 06:19:18;;;;;;;0.55;0.30;;;8.90;99.90;;;;;;4983742;28;20034;-79
2023/11/04 06:21:45;;;;;;;1.17;0.50;;;9.00;99.90;;;;;;4983676;28;20395;-79
2023/11/04 06:24:11;;;;;;;1.25;0.50;;;8.90;99.90;;;;;;4966900;28;20035;-79
2023/11/04 06:26:37;;;;;;;2.15;0.30;;;8.80;99.90;;;;;;4998923;28;20037;-79
2023/11/04 06:29:02;;;;;;;0.20;0.20;;;8.90;99.90;;;;;;4983718;28;20141;-79
2023/11/04 06:31:28;;;;;;;1.85;0.30;;;8.90;99.90;;;;;;4994380;28;20034;-79
2023/11/04 06:33:53;;;;;;;0.40;0.30;;;8.90;99.90;;;;;;4996901;28;20057;-79
2023/11/04 06:36:19;;;;;;;0.32;0.22;;;8.90;99.90;;;;;;4981753;28;20391;-79
2023/11/04 06:38:45;;;;;;;1.73;0.85;;;8.90;99.90;;;;;;4980857;28;20058;-79
2023/11/04 06:41:16;;;;;;;0.80;0.30;;;8.90;99.90;;;;;;4981142;28;20061;-79
2023/11/04 06:43:43;;;;;;;0.85;0.40;;;8.90;99.90;;;;;;5013293;28;20475;-79
2023/11/04 06:46:08;;;;;;;1.23;0.45;;;8.90;99.90;;;;;;4965830;28;20092;-79
2023/11/04 06:48:34;;;;;;;0.30;0.25;;;8.90;99.90;;;;;;5012670;28;20038;-80
2023/11/04 06:51:00;;;;;;;1.02;0.38;;;8.90;99.90;;;;;;4994321;28;20108;-78
2023/11/04 06:53:25;;;;;;;2.60;0.43;;;8.90;99.90;;;;;;5013115;28;20042;-79
2023/11/04 06:55:52;;;;;;;1.60;0.47;;;8.80;99.90;;;;;;4980672;28;20069;-79
2023/11/04 06:58:17;;;;;;;0.55;0.25;;;8.90;99.90;;;;;;4983061;28;20129;-79
2023/11/04 07:00:43;;;;;;;0.47;0.30;;;8.80;99.90;;;;;;4980657;28;20118;-79
2023/11/04 07:03:08;;;;;;;1.02;0.50;;;8.80;99.90;;;;;;4992632;28;20644;-79
2023/11/04 07:05:36;;;;;;;3.08;0.60;;;8.70;99.90;;;;;;5010573;28;20084;-79
2023/11/04 07:08:05;;;;;;;0.98;0.20;;;8.70;99.90;;;;;;4971062;28;20975;-79
2023/11/04 07:10:30;;;;;;;0.55;0.35;;;8.70;99.90;;;;;;4997230;28;20101;-79
2023/11/04 07:12:56;;;;;;;2.50;0.40;;;8.70;99.90;;;;;;5010126;28;20030;-80
2023/11/04 07:15:22;;;;;;;1.65;0.30;;;8.70;99.90;;;;;;4980270;28;20129;-80
2023/11/04 07:17:47;;;;;;;1.70;0.32;;;8.60;99.90;;;;;;5010372;28;20117;-79
2023/11/04 07:20:13;;;;;;;3.83;0.30;;;8.70;99.90;;;;;;4995605;28;20497;-80
2023/11/04 07:22:39;;;;;;;0.93;0.40;;;8.70;99.90;;;;;;5000131;28;20631;-79
2023/11/04 07:25:05;;;;;;;0.77;0.50;;;8.70;99.90;;;;;;4995402;28;20046;-79
2023/11/04 07:27:30;;;;;;;2.38;0.40;;;8.80;99.90;;;;;;4992075;28;20096;-79
2023/11/04 07:29:56;;;;;;;1.35;0.55;;;8.80;99.90;;;;;;4966302;28;20092;-79
2023/11/04 07:32:22;;;;;;;1.77;0.32;;;8.80;99.90;;;;;;4965772;28;20081;-79
2023/11/04 07:34:47;;;;;;;1.65;0.55;;;8.80;99.90;;;;;;4999907;28;20026;-80
2023/11/04 07:37:13;;;;;;;1.92;0.30;;;8.90;99.90;;;;;;4993235;28;20509;-80
2023/11/04 07:39:40;;;;;;;1.25;0.40;;;8.90;99.90;;;;;;4977755;28;20037;-79
2023/11/04 07:42:06;;;;;;;3.13;0.30;;;8.90;99.90;;;;;;4974590;28;20093;-80
2023/11/04 07:44:32;;;;;;;0.20;0.20;;;9.00;99.90;;;;;;4960157;28;20092;-79
2023/11/04 07:47:00;;;;;;;0.60;0.45;;;9.00;99.90;;;;;;4982437;28;20430;-79
2023/11/04 07:49:26;;;;;;;0.90;0.30;;;9.00;99.90;;;;;;4990527;28;20452;-80
2023/11/04 07:51:54;;;;;;;0.30;0.20;;;9.00;99.90;;;;;;4980923;28;20027;-79
2023/11/04 07:54:19;;;;;;;0.77;0.40;;;9.10;99.90;;;;;;4964235;28;20034;-79
2023/11/04 07:56:45;;;;;;;0.47;0.20;;;9.10;99.90;;;;;;4979814;28;20037;-80
2023/11/04 07:59:10;;;;;;;0.40;0.20;;;9.20;99.90;;;;;;4982080;28;20027;-79
2023/11/04 08:01:36;;;;;;;0.60;0.30;;;9.30;99.90;;;;;;5011183;28;20035;-79
2023/11/04 08:04:03;;;;;;;0.25;0.20;;;9.40;99.90;;;;;;4967126;28;20402;-79
2023/11/04 08:06:29;;;;;;;3.53;0.30;;;9.40;99.90;;;;;;4997071;28;20030;-79
2023/11/04 08:08:55;;;;;;;0.17;0.17;;;9.40;99.90;;;;;;4984309;28;20640;-79
2023/11/04 08:11:21;;;;;;;2.20;0.30;;;9.40;99.90;;;;;;5012388;28;20100;-79
2023/11/04 08:13:47;;;;;;;0.73;0.30;;;9.60;99.90;;;;;;5002797;28;20050;-79
2023/11/04 08:16:13;;;;;;;0.28;0.28;;;9.60;99.90;;;;;;4982916;28;20046;-80
2023/11/04 08:18:40;;;;;;;0.57;0.40;;;9.60;99.90;;;;;;4984530;28;20034;-80
2023/11/04 08:21:06;;;;;;;0.32;0.20;;;9.70;99.90;;;;;;4966811;28;20420;-79
2023/11/04 08:23:32;;;;;;;0.47;0.40;;;9.80;99.90;;;;;;4982806;28;20049;-80
2023/11/04 08:25:57;;;;;;;0.90;0.17;;;9.80;99.90;;;;;;4981110;28;20038;-80
2023/11/04 08:28:23;;;;;;;0.20;0.20;;;9.90;99.90;;;;;;5011262;28;20112;-80
2023/11/04 08:30:51;;;;;;;1.65;0.40;;;9.90;99.90;;;;;;5014238;28;20088;-80
2023/11/04 08:33:17;;;;;;;0.55;0.20;;;9.90;99.90;;;;;;4999495;28;20030;-80
2023/11/04 08:35:43;;;;;;;0.10;0.10;;;9.90;99.90;;;;;;5012598;28;20043;-80
2023/11/04 08:38:09;;;;;;;0.85;0.30;;;9.90;99.90;;;;;;4983859;28;20100;-80
2023/11/04 08:40:34;;;;;;;0.60;0.20;;;9.90;99.90;;;;;;4983907;28;20482;-80
2023/11/04 08:43:00;;;;;;;0.80;0.30;;;9.90;99.90;;;;;;4985378;28;20034;-79
2023/11/04 08:45:26;;;;;;;0.73;0.40;;;9.90;99.90;;;;;;5010085;28;20026;-80
2023/11/04 08:47:52;;;;;;;0.38;0.20;;;10.00;99.90;;;;;;4968643;28;20491;-79
2023/11/04 08:50:17;;;;;;;1.60;0.60;;;10.00;99.90;;;;;;4994766;28;20058;-79
2023/11/04 08:52:43;;;;;;;0.40;0.30;;;10.10;99.90;;;;;;4983881;28;20069;-80
2023/11/04 08:55:09;;;;;;;0.73;0.52;;;10.10;99.90;;;;;;4982898;28;20540;-79
2023/11/04 08:57:35;;;;;;;1.17;0.40;;;10.20;99.90;;;;;;4979610;28;20042;-79
2023/11/04 09:00:05;;;;;;;1.98;0.32;;;10.20;99.90;;;;;;4984424;28;20041;-80
2023/11/04 09:02:31;;;;;;;1.65;0.47;;;10.20;99.90;;;;;;4982123;28;20099;-80
2023/11/04 09:04:56;;;;;;;3.35;0.47;;;10.30;99.90;;;;;;4966947;28;21209;-80
2023/11/04 09:07:22;;;;;;;0.95;0.30;;;10.30;99.90;;;;;;5010832;28;20057;-78
2023/11/04 09:09:48;;;;;;;0.80;0.30;;;10.40;99.90;;;;;;4980745;28;20034;-80
2023/11/04 09:12:14;;;;;;;1.45;0.30;;;10.50;99.90;;;;;;5016007;28;20034;-81
2023/11/04 09:14:39;;;;;;;1.15;0.28;;;10.50;99.90;;;;;;5017620;28;20035;-80
2023/11/04 09:17:05;;;;;;;1.05;0.35;;;10.60;99.90;;;;;;4969705;28;20046;-80
2023/11/04 09:19:31;;;;;;;2.58;0.57;;;10.70;99.90;;;;;;4986117;28;20546;-81
2023/11/04 09:21:56;;;;;;;3.47;0.40;;;10.80;99.90;;;;;;4982981;28;20127;-81
2023/11/04 09:24:22;;;;;;;0.88;0.40;;;10.90;99.90;;;;;;4983723;28;20034;-81
2023/11/04 09:26:47;;;;;;;0.95;0.20;;;10.90;99.90;;;;;;4968313;28;20222;-82
2023/11/04 09:29:13;;;;;;;3.33;0.60;;;10.90;99.90;;;;;;4999365;28;20037;-80
2023/11/04 09:31:39;;;;;;;2.08;0.60;;;11.10;99.90;;;;;;4985231;28;20065;-80
2023/11/04 09:34:07;;;;;;;0.45;0.43;;;11.10;99.90;;;;;;4951445;28;20027;-80
2023/11/04 09:36:32;;;;;;;0.47;0.47;;;11.20;99.90;;;;;;4985502;28;20457;-79
2023/11/04 09:38:58;;;;;;;0.50;0.35;;;11.20;99.90;;;;;;4969357;28;20031;-80
2023/11/04 09:41:24;;;;;;;2.25;0.40;;;11.20;99.90;;;;;;4985731;28;20096;-80
2023/11/04 09:43:50;;;;;;;0.85;0.47;;;11.40;99.90;;;;;;4968128;28;20061;-80
2023/11/04 09:46:15;;;;;;;4.60;0.43;;;11.40;99.90;;;;;;4999986;28;20078;-81
2023/11/04 09:48:41;;;;;;;1.17;0.65;;;11.40;99.90;;;;;;4967903;28;20039;-81
2023/11/04 09:51:11;;;;;;;2.67;0.47;;;11.40;99.90;;;;;;4960837;28;20065;-81
2023/11/04 09:53:38;;;;;;;0.57;0.35;;;11.50;99.90;;;;;;4968428;28;20647;-82
2023/11/04 09:56:04;;;;;;;3.22;0.52;;;11.50;99.90;;;;;;5012198;28;20049;-81
2023/11/04 09:58:30;;;;;;;0.93;0.60;;;11.50;99.90;;;;;;4998757;28;20042;-80
2023/11/04 10:00:57;;;;;;;1.98;1.33;;;11.60;99.90;;;;;;4984709;28;20521;-81
2023/11/04 10:03:23;;;;;;;1.25;0.70;;;11.70;99.90;;;;;;4984961;28;20046;-81
2023/11/04 10:05:49;;;;;;;0.77;0.40;;;11.70;99.90;;;;;;5002785;28;20053;-80
2023/11/04 10:08:14;;;;;;;1.85;0.50;;;11.90;99.90;;;;;;5013808;28;20085;-81
2023/11/04 10:10:40;;;;;;;2.25;0.60;;;12.00;99.90;;;;;;4984926;28;20502;-81
2023/11/04 10:13:07;;;;;;;1.27;0.50;;;12.10;99.90;;;;;;5000734;28;20128;-81
2023/11/04 10:15:33;;;;;;;0.80;0.60;;;12.10;99.90;;;;;;5002490;28;20046;-81
2023/11/04 10:18:00;;;;;;;1.58;0.60;;;12.20;99.90;;;;;;4952841;28;20443;-80
2023/11/04 10:20:26;;;;;;;1.85;0.50;;;12.10;99.90;;;;;;4988217;28;20515;-81
2023/11/04 10:22:53;;;;;;;3.78;0.57;;;12.20;99.90;;;;;;4997066;28;20068;-81
2023/11/04 10:25:19;;;;;;;0.60;0.50;;;12.20;99.90;;;;;;4983724;28;20034;-81
2023/11/04 10:27:45;;;;;;;1.85;0.70;;;12.20;99.90;;;;;;4994090;28;20526;-81
2023/11/04 10:30:11;;;;;;;1.67;0.90;;;12.30;99.90;;;;;;4985177;28;20050;-81
2023/11/04 10:32:37;;;;;;;2.30;0.73;;;12.40;99.90;;;;;;4996738;28;20064;-83
2023/11/04 10:35:03;;;;;;;1.05;0.63;;;12.40;99.90;;;;;;4967956;28;20038;-85
2023/11/04 10:37:31;;;;;;;3.60;0.65;;;12.50;99.90;;;;;;4998242;28;20457;-84
2023/11/04 10:39:57;;;;;;;1.92;0.50;;;12.60;99.90;;;;;;4995422;28;20114;-84
2023/11/04 10:42:24;;;;;;;3.53;0.50;;;12.70;99.90;;;;;;4981792;28;20073;-84
2023/11/04 10:44:51;;;;;;;0.95;0.52;;;12.70;99.90;;;;;;4968772;28;20034;-83
2023/11/04 10:47:57;;;;;;;1.55;0.45;;;12.70;99.90;;;;;;4967764;28;20031;-84
2023/11/04 10:50:32;;;;;;;1.75;0.60;;;12.70;99.90;;;;;;4982786;28;20561;-84
2023/11/04 10:53:01;;;;;;;2.65;0.98;;;12.70;99.90;;;;;;4986105;28;20400;-84
2023/11/04 10:55:29;;;;;;;1.85;0.82;;;12.80;99.90;;;;;;4981420;28;20113;-84
2023/11/04 10:58:02;;;;;;;2.03;1.00;;;12.80;99.90;;;;;;5016391;28;20041;-83
2023/11/04 11:00:28;;;;;;;2.20;0.50;;;12.80;99.90;;;;;;5002730;28;20030;-83
2023/11/04 11:02:53;;;;;;;4.97;1.20;;;12.80;99.90;;;;;;5008824;28;20035;-84
2023/11/04 11:05:23;;;;;;;0.40;0.40;;;12.80;99.90;;;;;;4973027;28;20052;-83
2023/11/04 11:07:49;;;;;;;0.98;0.40;;;12.80;99.90;;;;;;5009527;28;20106;-83
2023/11/04 11:10:16;;;;;;;2.80;0.80;;;12.60;99.90;;;;;;4982458;28;20109;-82
2023/11/04 11:12:46;;;;;;;1.92;0.55;;;12.70;99.90;;;;;;4994524;28;20092;-82
2023/11/04 11:15:11;;;;;;;1.10;0.50;;;12.60;99.90;;;;;;5001721;28;20039;-82
2023/11/04 11:17:37;;;;;;;2.10;0.60;;;12.50;99.90;;;;;;4983777;28;20089;-84
2023/11/04 11:20:03;;;;;;;3.00;0.50;;;12.50;99.90;;;;;;4989381;28;20110;-82
2023/11/04 11:22:30;;;;;;;2.20;0.70;;;12.50;99.90;;;;;;4989195;28;20126;-84
2023/11/04 11:24:56;;;;;;;6.03;0.82;;;12.40;99.90;;;;;;4983087;28;20042;-86
2023/11/04 11:27:24;;;;;;;1.63;0.88;;;12.50;99.90;;;;;;4967293;28;20077;-83
2023/11/04 11:29:50;;;;;;;3.95;0.70;;;12.30;99.90;;;;;;4981964;28;20062;-82
2023/11/04 11:32:20;;;;;;;2.20;0.60;;;12.40;99.90;;;;;;4965983;28;20023;-83
2023/11/04 11:34:52;;;;;;;1.55;0.47;;;12.30;99.90;;;;;;4983253;28;20430;-84
2023/11/04 11:37:22;;;;;;;3.20;0.90;;;12.30;99.90;;;;;;5000634;28;20041;-84
2023/11/04 11:39:48;;;;;;;1.60;0.52;;;12.30;99.90;;;;;;4998952;28;20084;-83
2023/11/04 11:42:14;;;;;;;3.03;0.68;;;12.20;99.90;;;;;;5001195;28;20050;-86
2023/11/04 11:44:41;;;;;;;1.63;0.70;;;12.20;99.90;;;;;;4986893;28;20483;-83
2023/11/04 11:47:07;;;;;;;1.27;0.50;;;12.10;99.90;;;;;;4969450;28;20615;-82
2023/11/04 11:49:33;;;;;;;4.55;0.60;;;12.10;99.90;;;;;;5004318;28;20077;-82
2023/11/04 11:51:59;;;;;;;3.50;0.65;;;12.00;99.90;;;;;;4986125;28;20035;-81
2023/11/04 11:54:24;;;;;;;1.30;0.88;;;11.80;99.90;;;;;;4969393;28;20105;-82
2023/11/04 11:56:50;;;;;;;1.92;0.55;;;11.80;99.90;;;;;;4969405;28;20398;-84
2023/11/04 11:59:16;;;;;;;2.97;0.77;;;11.60;99.90;;;;;;4972865;28;20510;-85
2023/11/04 12:01:41;;;;;;;3.13;1.10;;;11.50;99.90;;;;;;4985662;28;20173;-83
2023/11/04 12:04:07;;;;;;;1.95;0.63;;;11.40;99.90;;;;;;4984629;28;20034;-84
2023/11/04 12:06:34;;;;;;;1.52;1.02;;;11.40;99.90;;;;;;4637419;28;10000040;-84
2023/11/04 12:08:59;;;;;;;3.60;0.60;;;11.30;99.90;;;;;;4968391;28;20125;-83
2023/11/04 12:11:26;;;;;;;2.70;1.00;;;11.20;99.90;;;;;;4983927;28;20681;-83
2023/11/04 12:13:52;;;;;;;3.83;0.60;;;11.10;99.90;;;;;;4966774;28;20034;-83
2023/11/04 12:16:17;;;;;;;1.08;0.40;;;11.30;99.90;;;;;;4998952;28;20875;-81
2023/11/04 12:18:43;;;;;;;1.17;0.70;;;11.20;99.90;;;;;;4983830;28;20391;-81
2023/11/04 12:21:10;;;;;;;2.95;0.60;;;11.10;99.90;;;;;;5003150;28;20491;-80
2023/11/04 12:23:36;;;;;;;3.63;0.75;;;11.20;99.90;;;;;;5002093;28;20441;-81
2023/11/04 12:26:01;;;;;;;1.88;0.50;;;11.20;99.90;;;;;;4984349;28;20030;-81
2023/11/04 12:28:27;;;;;;;4.50;0.80;;;11.30;99.90;;;;;;4982964;28;20046;-81
2023/11/04 12:31:03;;;;;;;3.47;0.70;;;11.30;99.90;;;;;;4982616;28;20045;-81
2023/11/04 12:33:29;;;;;;;4.60;0.40;;;11.40;99.90;;;;;;4999178;28;20041;-79
2023/11/04 12:36:02;;;;;;;3.95;0.93;;;11.40;99.90;;;;;;4966196;28;20038;-80
2023/11/04 12:38:28;;;;;;;3.05;0.50;;;11.20;99.90;;;;;;4997481;28;20531;-80
2023/11/04 12:40:55;;;;;;;9.30;0.95;;;11.20;99.90;;;;;;4965802;28;20035;-80
2023/11/04 12:43:23;;;;;;;1.50;0.70;;;11.10;99.90;;;;;;4982349;28;20049;-80
2023/11/04 12:45:51;;;;;;;1.35;0.93;;;11.10;99.90;;;;;;4991756;28;20043;-81
2023/11/04 12:48:18;;;;;;;1.88;0.60;;;11.00;99.90;;;;;;4980054;28;20069;-79